Time;durP1;ratioP1;P1;durP2;ratioP2;P2;SDS_P1;SDS_P2;PMS_P1;PMS_P2;Temp;Humidity;BMP_temperature;BMP_pressure;BME280_temperature;BME280_humidity;BME280_pressure;Samples;Min_cycle;Max_cycle;Signal;HPM_P1;HPM_P2
2023/11/14 00:02:16;;;;;;;0.90;0.85;;;;;;;;;;4933581;29;20039;-75
2023/11/14 00:04:42;;;;;;;1.27;1.20;;;;;;;;;;4933550;29;20114;-75
2023/11/14 00:07:08;;;;;;;1.05;1.05;;;;;;;;;;4916209;29;20063;-76
2023/11/14 00:09:34;;;;;;;1.30;1.20;;;;;;;;;;4933663;29;20055;-77
2023/11/14 00:12:00;;;;;;;1.10;1.10;;;;;;;;;;4919055;29;20043;-76
2023/11/14 00:14:27;;;;;;;0.98;0.98;;;;;;;;;;4968866;28;20167;-75
2023/11/14 00:16:53;;;;;;;1.40;1.40;;;;;;;;;;4981090;28;20043;-74
2023/11/14 00:19:19;;;;;;;1.90;0.98;;;;;;;;;;4954524;28;20043;-76
2023/11/14 00:21:45;;;;;;;0.95;0.80;;;;;;;;;;4979410;28;20046;-76
2023/11/14 00:24:11;;;;;;;0.65;0.65;;;;;;;;;;4962372;28;20118;-78
2023/11/14 00:26:38;;;;;;;0.70;0.70;;;;;;;;;;4972184;28;20502;-77
2023/11/14 00:29:05;;;;;;;0.73;0.73;;;;;;;;;;4954406;28;20043;-77
2023/11/14 00:31:31;;;;;;;0.75;0.75;;;;;;;;;;4972194;28;20053;-77
2023/11/14 00:33:58;;;;;;;0.70;0.70;;;;;;;;;;4938523;28;20057;-77
2023/11/14 00:36:24;;;;;;;0.60;0.60;;;;;;;;;;4935589;29;20058;-78
2023/11/14 00:38:50;;;;;;;0.60;0.60;;;;;;;;;;4951343;28;20045;-78
2023/11/14 00:41:17;;;;;;;0.43;0.43;;;;;;;;;;4971478;28;20054;-78
2023/11/14 00:43:43;;;;;;;0.65;0.65;;;;;;;;;;4971474;28;20126;-79
2023/11/14 00:46:10;;;;;;;0.82;0.82;;;;;;;;;;4971384;28;20043;-76
2023/11/14 00:48:36;;;;;;;0.70;0.70;;;;;;;;;;4971341;28;20558;-78
2023/11/14 00:51:02;;;;;;;0.70;0.70;;;;;;;;;;4970899;28;20430;-79
2023/11/14 00:53:28;;;;;;;0.50;0.50;;;;;;;;;;4954793;28;20072;-79
2023/11/14 00:55:55;;;;;;;0.50;0.50;;;;;;;;;;4973426;28;20085;-78
2023/11/14 00:58:21;;;;;;;0.50;0.50;;;;;;;;;;4972487;28;20042;-78
2023/11/14 01:00:47;;;;;;;0.68;0.68;;;;;;;;;;4971849;28;20038;-78
2023/11/14 01:03:13;;;;;;;0.70;0.70;;;;;;;;;;4953162;28;20035;-79
2023/11/14 01:05:39;;;;;;;0.50;0.50;;;;;;;;;;4963957;28;20045;-76
2023/11/14 01:08:05;;;;;;;0.60;0.60;;;;;;;;;;4971701;28;20421;-77
2023/11/14 01:10:31;;;;;;;0.50;0.50;;;;;;;;;;4954353;28;20053;-78
2023/11/14 01:13:00;;;;;;;0.55;0.55;;;;;;;;;;4953988;28;20406;-79
2023/11/14 01:15:27;;;;;;;0.50;0.50;;;;;;;;;;4971479;28;20058;-78
2023/11/14 01:17:53;;;;;;;0.50;0.50;;;;;;;;;;4957559;28;20181;-76
2023/11/14 01:20:20;;;;;;;0.60;0.60;;;;;;;;;;4953827;28;20051;-77
2023/11/14 01:22:46;;;;;;;0.55;0.55;;;;;;;;;;4953961;28;20417;-78
2023/11/14 01:25:12;;;;;;;0.50;0.50;;;;;;;;;;4959938;28;20039;-76
2023/11/14 01:27:40;;;;;;;0.50;0.50;;;;;;;;;;4969394;28;20050;-77
2023/11/14 01:30:07;;;;;;;0.60;0.60;;;;;;;;;;4970678;28;20065;-78
2023/11/14 01:32:33;;;;;;;0.50;0.50;;;;;;;;;;4971203;28;20097;-77
2023/11/14 01:34:59;;;;;;;0.60;0.60;;;;;;;;;;4970643;28;20054;-78
2023/11/14 01:37:25;;;;;;;0.60;0.60;;;;;;;;;;4971143;28;20038;-77
2023/11/14 01:39:52;;;;;;;0.60;0.60;;;;;;;;;;4971071;28;20042;-77
2023/11/14 01:42:19;;;;;;;0.60;0.60;;;;;;;;;;4953528;28;20090;-77
2023/11/14 01:44:45;;;;;;;0.50;0.50;;;;;;;;;;4953979;28;20050;-78
2023/11/14 01:47:12;;;;;;;0.50;0.50;;;;;;;;;;4950274;29;20047;-76
2023/11/14 01:49:38;;;;;;;0.70;0.70;;;;;;;;;;4964481;28;20141;-79
2023/11/14 01:52:04;;;;;;;0.50;0.50;;;;;;;;;;4953535;28;20073;-77
2023/11/14 01:54:30;;;;;;;0.50;0.50;;;;;;;;;;4953629;28;20082;-78
2023/11/14 01:56:56;;;;;;;1.38;0.47;;;;;;;;;;4971176;28;20034;-78
2023/11/14 01:59:23;;;;;;;0.60;0.60;;;;;;;;;;4937720;28;20122;-77
2023/11/14 02:01:49;;;;;;;1.20;1.20;;;;;;;;;;4953517;28;20402;-76
2023/11/14 02:04:16;;;;;;;0.70;0.70;;;;;;;;;;4973050;28;20153;-78
2023/11/14 02:06:42;;;;;;;0.60;0.60;;;;;;;;;;4944858;28;20046;-78
2023/11/14 02:09:08;;;;;;;0.70;0.70;;;;;;;;;;4956629;28;20500;-78
2023/11/14 02:11:34;;;;;;;0.57;0.57;;;;;;;;;;4973329;28;20047;-78
2023/11/14 02:14:00;;;;;;;0.60;0.60;;;;;;;;;;4960245;28;20425;-76
2023/11/14 02:16:43;;;;;;;1.35;1.30;;;;;;;;;;4944086;28;20081;-77
2023/11/14 02:19:09;;;;;;;1.63;1.50;;;;;;;;;;4956481;28;20584;-78
2023/11/14 02:21:35;;;;;;;6.10;2.97;;;;;;;;;;4973998;28;20046;-77
2023/11/14 02:24:01;;;;;;;7.05;4.47;;;;;;;;;;4956573;28;20047;-77
2023/11/14 02:26:27;;;;;;;4.05;3.03;;;;;;;;;;4974380;28;20042;-77
2023/11/14 02:28:59;;;;;;;3.58;2.70;;;;;;;;;;4972983;28;20130;-77
2023/11/14 02:31:26;;;;;;;2.53;2.15;;;;;;;;;;4962287;28;20047;-76
2023/11/14 02:33:52;;;;;;;1.98;1.77;;;;;;;;;;4956471;28;20062;-76
2023/11/14 02:36:18;;;;;;;1.60;1.50;;;;;;;;;;4967558;28;20397;-78
2023/11/14 02:38:45;;;;;;;1.40;1.30;;;;;;;;;;4938680;28;20046;-78
2023/11/14 02:41:11;;;;;;;1.15;1.15;;;;;;;;;;4956919;28;20050;-78
2023/11/14 02:43:37;;;;;;;1.00;1.00;;;;;;;;;;4974295;28;20509;-79
2023/11/14 02:46:03;;;;;;;1.15;1.15;;;;;;;;;;4953421;28;20134;-75
2023/11/14 02:48:29;;;;;;;0.70;0.70;;;;;;;;;;4972261;28;20125;-76
2023/11/14 02:50:55;;;;;;;1.27;0.85;;;;;;;;;;4973871;28;20047;-75
2023/11/14 02:53:21;;;;;;;1.17;1.10;;;;;;;;;;4940242;28;20046;-77
2023/11/14 02:55:50;;;;;;;1.70;1.60;;;;;;;;;;4973691;28;20112;-76
2023/11/14 02:58:16;;;;;;;1.60;1.60;;;;;;;;;;4956064;28;20090;-77
2023/11/14 03:00:45;;;;;;;1.33;1.33;;;;;;;;;;4956554;28;20397;-77
2023/11/14 03:03:16;;;;;;;1.23;1.23;;;;;;;;;;4973762;28;20045;-77
2023/11/14 03:05:42;;;;;;;1.33;1.33;;;;;;;;;;4965522;28;20079;-75
2023/11/14 03:08:08;;;;;;;1.60;1.50;;;;;;;;;;4973785;29;20494;-76
2023/11/14 03:10:34;;;;;;;1.80;1.70;;;;;;;;;;4943216;28;20043;-76
2023/11/14 03:13:02;;;;;;;1.65;1.55;;;;;;;;;;4964412;28;20045;-77
2023/11/14 03:15:29;;;;;;;1.67;1.58;;;;;;;;;;4976279;28;20302;-76
2023/11/14 03:17:56;;;;;;;1.83;1.70;;;;;;;;;;4958906;28;20043;-76
2023/11/14 03:20:23;;;;;;;1.70;1.70;;;;;;;;;;4975155;28;20057;-76
2023/11/14 03:22:49;;;;;;;1.23;1.05;;;;;;;;;;4975374;28;20065;-77
2023/11/14 03:25:16;;;;;;;1.63;1.52;;;;;;;;;;4973751;28;20121;-78
2023/11/14 03:27:42;;;;;;;1.15;1.10;;;;;;;;;;4955393;28;20041;-78
2023/11/14 03:30:09;;;;;;;1.20;1.20;;;;;;;;;;4953861;28;20437;-77
2023/11/14 03:32:35;;;;;;;1.30;1.30;;;;;;;;;;4971999;28;20049;-76
2023/11/14 03:35:02;;;;;;;1.33;1.33;;;;;;;;;;4963978;28;20065;-77
2023/11/14 03:37:29;;;;;;;1.40;1.30;;;;;;;;;;4944142;28;20821;-77
2023/11/14 03:39:55;;;;;;;0.85;0.85;;;;;;;;;;4973033;28;20073;-77
2023/11/14 03:42:22;;;;;;;1.00;1.00;;;;;;;;;;4971974;28;20078;-78
2023/11/14 03:44:48;;;;;;;1.30;1.30;;;;;;;;;;4973308;28;20117;-77
2023/11/14 03:47:15;;;;;;;1.08;1.08;;;;;;;;;;4960209;28;20049;-77
2023/11/14 03:49:41;;;;;;;1.38;1.30;;;;;;;;;;4973105;28;20058;-77
2023/11/14 03:52:08;;;;;;;0.90;0.90;;;;;;;;;;4972723;28;20081;-76
2023/11/14 03:54:35;;;;;;;1.17;1.17;;;;;;;;;;4973558;28;20050;-76
2023/11/14 03:57:01;;;;;;;0.90;0.90;;;;;;;;;;4957933;28;20035;-76
2023/11/14 03:59:27;;;;;;;1.08;1.00;;;;;;;;;;4975807;28;20057;-77
2023/11/14 04:01:54;;;;;;;1.15;1.15;;;;;;;;;;4941550;28;20127;-76
2023/11/14 04:04:20;;;;;;;1.30;1.30;;;;;;;;;;4976779;28;20098;-75
2023/11/14 04:06:47;;;;;;;1.23;1.23;;;;;;;;;;4980660;28;20049;-75
2023/11/14 04:09:13;;;;;;;1.40;1.40;;;;;;;;;;4955182;28;20062;-74
2023/11/14 04:11:45;;;;;;;1.05;1.05;;;;;;;;;;4965351;28;20042;-75
2023/11/14 04:14:12;;;;;;;1.35;1.35;;;;;;;;;;4974645;28;20090;-74
2023/11/14 04:16:37;;;;;;;1.10;1.10;;;;;;;;;;4957497;28;20488;-74
2023/11/14 04:19:04;;;;;;;1.38;1.38;;;;;;;;;;4924798;28;20070;-74
2023/11/14 04:21:30;;;;;;;1.15;1.15;;;;;;;;;;4956859;28;20042;-74
2023/11/14 04:23:56;;;;;;;1.60;1.50;;;;;;;;;;4955338;28;20053;-74
2023/11/14 04:26:22;;;;;;;1.48;1.38;;;;;;;;;;4960741;28;20046;-75
2023/11/14 04:28:48;;;;;;;1.35;1.35;;;;;;;;;;4965537;28;20417;-75
2023/11/14 04:31:15;;;;;;;1.13;1.13;;;;;;;;;;4963928;28;20042;-75
2023/11/14 04:33:42;;;;;;;0.98;0.98;;;;;;;;;;4970552;28;20089;-76
2023/11/14 04:36:08;;;;;;;0.90;0.90;;;;;;;;;;4970911;28;20173;-76
2023/11/14 04:38:34;;;;;;;0.85;0.85;;;;;;;;;;4949004;28;20537;-75
2023/11/14 04:41:00;;;;;;;0.98;0.98;;;;;;;;;;4951912;28;20104;-76
2023/11/14 04:43:26;;;;;;;1.15;1.15;;;;;;;;;;4971044;28;20129;-76
2023/11/14 04:45:52;;;;;;;1.17;1.05;;;;;;;;;;4970113;28;20186;-75
2023/11/14 04:48:18;;;;;;;2.35;1.27;;;;;;;;;;4967599;28;20093;-75
2023/11/14 04:50:44;;;;;;;1.02;1.02;;;;;;;;;;4969650;28;20580;-75
2023/11/14 04:53:10;;;;;;;0.95;0.95;;;;;;;;;;4969916;28;20053;-75
2023/11/14 04:55:36;;;;;;;1.05;1.05;;;;;;;;;;4970168;28;20054;-76
2023/11/14 04:58:02;;;;;;;1.80;1.20;;;;;;;;;;4968006;28;20050;-76
2023/11/14 05:00:29;;;;;;;1.48;1.02;;;;;;;;;;4959954;28;20513;-76
2023/11/14 05:02:55;;;;;;;1.05;1.05;;;;;;;;;;4966184;28;20121;-77
2023/11/14 05:05:21;;;;;;;1.10;1.10;;;;;;;;;;4948990;28;20046;-75
2023/11/14 05:07:48;;;;;;;1.10;1.10;;;;;;;;;;4969301;28;20039;-74
2023/11/14 05:10:14;;;;;;;0.80;0.80;;;;;;;;;;4967460;28;20102;-75
2023/11/14 05:12:40;;;;;;;1.30;1.27;;;;;;;;;;4969301;28;20097;-75
2023/11/14 05:15:07;;;;;;;1.27;1.27;;;;;;;;;;4968119;28;20485;-75
2023/11/14 05:17:34;;;;;;;1.10;1.10;;;;;;;;;;4967979;28;20038;-75
2023/11/14 05:20:01;;;;;;;1.13;1.13;;;;;;;;;;4968047;28;20249;-76
2023/11/14 05:22:28;;;;;;;0.90;0.90;;;;;;;;;;4967608;28;20046;-77
2023/11/14 05:24:54;;;;;;;0.68;0.68;;;;;;;;;;4947785;28;20041;-76
2023/11/14 05:27:20;;;;;;;0.90;0.90;;;;;;;;;;4951364;28;20042;-74
2023/11/14 05:29:46;;;;;;;1.10;1.10;;;;;;;;;;4948654;29;20070;-75
2023/11/14 05:32:12;;;;;;;1.10;1.10;;;;;;;;;;4966077;28;20071;-76
2023/11/14 05:34:38;;;;;;;0.80;0.80;;;;;;;;;;4969154;28;20054;-76
2023/11/14 05:37:05;;;;;;;2.38;1.35;;;;;;;;;;4966919;28;20093;-76
2023/11/14 05:39:31;;;;;;;0.90;0.90;;;;;;;;;;4963157;28;20085;-76
2023/11/14 05:41:57;;;;;;;1.52;1.30;;;;;;;;;;4955821;28;20043;-76
2023/11/14 05:44:23;;;;;;;1.65;1.08;;;;;;;;;;4971574;28;20045;-76
2023/11/14 05:46:49;;;;;;;1.55;1.00;;;;;;;;;;4971486;28;20043;-76
2023/11/14 05:49:15;;;;;;;0.90;0.90;;;;;;;;;;4972292;28;20453;-77
2023/11/14 05:51:41;;;;;;;1.00;1.00;;;;;;;;;;4962416;28;20042;-77
2023/11/14 05:54:07;;;;;;;0.90;0.90;;;;;;;;;;4969585;28;20130;-78
2023/11/14 05:56:33;;;;;;;1.92;1.00;;;;;;;;;;4938177;28;20062;-77
2023/11/14 05:58:59;;;;;;;0.77;0.77;;;;;;;;;;4984294;28;20041;-77
2023/11/14 06:01:25;;;;;;;0.93;0.93;;;;;;;;;;4984943;28;20042;-75
2023/11/14 06:03:51;;;;;;;1.67;1.67;;;;;;;;;;4969234;28;20086;-73
2023/11/14 06:06:17;;;;;;;1.02;1.02;;;;;;;;;;4966258;28;20078;-75
2023/11/14 06:08:43;;;;;;;1.20;1.20;;;;;;;;;;4967039;28;20062;-75
2023/11/14 06:11:09;;;;;;;1.83;1.33;;;;;;;;;;4971355;28;20498;-75
2023/11/14 06:13:35;;;;;;;0.90;0.90;;;;;;;;;;4953754;28;20086;-75
2023/11/14 06:16:02;;;;;;;2.25;1.60;;;;;;;;;;4970427;28;20513;-76
2023/11/14 06:18:30;;;;;;;1.40;1.30;;;;;;;;;;4966965;28;20366;-75
2023/11/14 06:20:56;;;;;;;2.40;2.25;;;;;;;;;;4956125;28;20057;-74
2023/11/14 06:23:22;;;;;;;2.95;2.75;;;;;;;;;;4973033;28;20046;-75
2023/11/14 06:25:48;;;;;;;4.95;3.75;;;;;;;;;;4952407;28;20429;-75
2023/11/14 06:28:14;;;;;;;5.72;5.20;;;;;;;;;;4949216;28;20055;-74
2023/11/14 06:30:41;;;;;;;7.72;6.18;;;;;;;;;;4970182;28;20540;-74
2023/11/14 06:33:07;;;;;;;3.88;3.55;;;;;;;;;;4953969;28;20039;-73
2023/11/14 06:35:33;;;;;;;2.50;2.30;;;;;;;;;;4972800;28;20085;-74
2023/11/14 06:37:59;;;;;;;1.95;1.85;;;;;;;;;;4970999;28;20070;-74
2023/11/14 06:40:25;;;;;;;3.55;3.35;;;;;;;;;;4972770;28;20561;-74
2023/11/14 06:42:51;;;;;;;4.25;2.80;;;;;;;;;;4973301;28;20126;-75
2023/11/14 06:45:17;;;;;;;2.95;2.65;;;;;;;;;;4972416;28;20089;-75
2023/11/14 06:47:43;;;;;;;2.03;1.92;;;;;;;;;;4957394;28;20046;-73
2023/11/14 06:50:10;;;;;;;1.80;1.70;;;;;;;;;;4967152;28;20047;-73
2023/11/14 06:52:36;;;;;;;2.30;2.20;;;;;;;;;;4953476;28;20098;-73
2023/11/14 06:55:03;;;;;;;1.95;1.85;;;;;;;;;;4967360;28;20046;-74
2023/11/14 06:57:34;;;;;;;2.30;2.20;;;;;;;;;;4955467;28;20047;-73
2023/11/14 07:00:00;;;;;;;1.65;1.65;;;;;;;;;;4953229;28;20046;-73
2023/11/14 07:02:26;;;;;;;2.95;2.40;;;;;;;;;;4961708;28;20051;-74
2023/11/14 07:04:53;;;;;;;1.90;1.67;;;;;;;;;;4957257;28;20054;-74
2023/11/14 07:07:21;;;;;;;2.10;2.00;;;;;;;;;;4953004;28;20454;-73
2023/11/14 07:09:47;;;;;;;2.38;2.28;;;;;;;;;;4952777;28;20533;-74
2023/11/14 07:12:13;;;;;;;2.33;2.03;;;;;;;;;;4957377;28;20071;-74
2023/11/14 07:14:39;;;;;;;3.22;3.03;;;;;;;;;;4952454;28;20089;-74
2023/11/14 07:17:05;;;;;;;2.40;2.30;;;;;;;;;;4952990;28;20043;-74
2023/11/14 07:19:31;;;;;;;4.05;3.75;;;;;;;;;;4953752;28;20500;-74
2023/11/14 07:21:57;;;;;;;3.22;3.05;;;;;;;;;;4964091;28;20067;-74
2023/11/14 07:24:25;;;;;;;2.67;2.47;;;;;;;;;;4965230;28;20082;-72
2023/11/14 07:26:51;;;;;;;3.42;3.13;;;;;;;;;;4958955;28;20402;-74
2023/11/14 07:29:19;;;;;;;3.38;3.08;;;;;;;;;;4953613;28;20130;-72
2023/11/14 07:31:45;;;;;;;4.65;3.15;;;;;;;;;;4948204;28;20533;-74
2023/11/14 07:34:11;;;;;;;1.67;1.67;;;;;;;;;;4954375;28;20134;-75
2023/11/14 07:36:38;;;;;;;2.22;2.13;;;;;;;;;;4953801;28;20043;-74
2023/11/14 07:39:08;;;;;;;1.80;1.70;;;;;;;;;;4953026;28;20473;-75
2023/11/14 07:41:34;;;;;;;1.40;1.38;;;;;;;;;;4964792;28;20046;-74
2023/11/14 07:44:01;;;;;;;2.35;2.15;;;;;;;;;;4953260;28;20042;-76
2023/11/14 07:46:27;;;;;;;2.13;1.85;;;;;;;;;;4963352;28;20046;-75
2023/11/14 07:48:53;;;;;;;2.00;1.90;;;;;;;;;;4952448;28;20043;-73
2023/11/14 07:51:20;;;;;;;1.75;1.65;;;;;;;;;;4964036;28;20062;-74
2023/11/14 07:53:46;;;;;;;3.38;1.90;;;;;;;;;;4951893;28;20540;-74
2023/11/14 07:56:13;;;;;;;2.28;2.08;;;;;;;;;;4968794;28;20046;-75
2023/11/14 07:58:39;;;;;;;1.73;1.70;;;;;;;;;;4944213;29;20047;-76
2023/11/14 08:01:05;;;;;;;1.65;1.65;;;;;;;;;;4940487;28;20051;-72
2023/11/14 08:03:31;;;;;;;0.70;0.70;;;;;;;;;;4951551;28;20400;-74
2023/11/14 08:05:57;;;;;;;2.80;2.60;;;;;;;;;;4952139;28;20055;-73
2023/11/14 08:08:23;;;;;;;2.67;2.22;;;;;;;;;;4953177;28;20517;-73
2023/11/14 08:10:49;;;;;;;3.03;1.98;;;;;;;;;;4970713;28;20089;-74
2023/11/14 08:13:16;;;;;;;4.93;2.28;;;;;;;;;;4965190;28;20161;-74
2023/11/14 08:15:43;;;;;;;2.00;1.90;;;;;;;;;;4946928;28;20073;-73
2023/11/14 08:18:09;;;;;;;2.22;2.13;;;;;;;;;;4968350;28;20039;-73
2023/11/14 08:20:35;;;;;;;5.03;1.88;;;;;;;;;;4957451;28;20110;-73
2023/11/14 08:23:01;;;;;;;1.63;1.63;;;;;;;;;;4970968;28;20039;-73
2023/11/14 08:25:31;;;;;;;2.03;1.92;;;;;;;;;;4957681;28;20055;-74
2023/11/14 08:28:00;;;;;;;1.90;1.80;;;;;;;;;;4969676;28;20528;-74
2023/11/14 08:30:27;;;;;;;2.35;2.25;;;;;;;;;;4968864;28;20469;-74
2023/11/14 08:32:55;;;;;;;1.63;1.63;;;;;;;;;;4959746;28;20053;-75
2023/11/14 08:35:21;;;;;;;1.80;1.70;;;;;;;;;;4970078;28;20054;-74
2023/11/14 08:37:49;;;;;;;1.10;1.10;;;;;;;;;;4966934;28;20039;-73
2023/11/14 08:40:15;;;;;;;2.30;2.10;;;;;;;;;;4970177;28;20543;-72
2023/11/14 08:42:41;;;;;;;1.80;1.70;;;;;;;;;;4967397;28;20046;-73
2023/11/14 08:45:08;;;;;;;2.00;1.90;;;;;;;;;;4963225;28;20129;-73
2023/11/14 08:47:34;;;;;;;4.60;2.20;;;;;;;;;;4947403;28;20472;-72
2023/11/14 08:50:00;;;;;;;2.03;1.92;;;;;;;;;;4952013;28;20138;-72
2023/11/14 08:52:27;;;;;;;2.10;2.00;;;;;;;;;;4965228;28;21558;-72
2023/11/14 08:54:53;;;;;;;2.40;2.30;;;;;;;;;;4966248;28;20476;-75
2023/11/14 08:57:19;;;;;;;2.55;2.40;;;;;;;;;;4968075;28;20055;-74
2023/11/14 08:59:46;;;;;;;2.33;2.00;;;;;;;;;;4957854;28;20061;-72
2023/11/14 09:02:12;;;;;;;2.20;2.10;;;;;;;;;;4958180;28;20059;-72
2023/11/14 09:04:40;;;;;;;2.25;2.13;;;;;;;;;;4964223;28;20057;-74
2023/11/14 09:07:06;;;;;;;1.90;1.80;;;;;;;;;;4947385;28;20178;-72
2023/11/14 09:09:32;;;;;;;1.77;1.67;;;;;;;;;;4960683;28;20135;-74
2023/11/14 09:11:58;;;;;;;1.50;1.40;;;;;;;;;;4965033;28;20117;-74
2023/11/14 09:14:25;;;;;;;2.28;2.17;;;;;;;;;;4966018;28;20058;-73
2023/11/14 09:16:51;;;;;;;2.47;2.38;;;;;;;;;;4957480;28;20043;-72
2023/11/14 09:19:17;;;;;;;1.77;1.70;;;;;;;;;;4955587;28;20142;-73
2023/11/14 09:21:43;;;;;;;2.00;1.90;;;;;;;;;;4955979;28;20047;-73
2023/11/14 09:24:09;;;;;;;1.80;1.70;;;;;;;;;;4959170;28;20146;-74
2023/11/14 09:26:36;;;;;;;2.28;2.17;;;;;;;;;;4960429;28;20070;-74
2023/11/14 09:29:01;;;;;;;1.98;1.88;;;;;;;;;;4963710;28;20075;-72
2023/11/14 09:31:28;;;;;;;2.25;2.05;;;;;;;;;;4958994;28;20039;-72
2023/11/14 09:33:54;;;;;;;1.80;1.70;;;;;;;;;;4971621;28;20059;-72
2023/11/14 09:36:20;;;;;;;2.03;1.92;;;;;;;;;;4964714;28;20035;-72
2023/11/14 09:38:45;;;;;;;1.65;1.63;;;;;;;;;;4953675;28;20046;-73
2023/11/14 09:41:12;;;;;;;1.90;1.80;;;;;;;;;;4973637;28;20129;-73
2023/11/14 09:43:37;;;;;;;1.95;1.85;;;;;;;;;;4967270;28;20069;-73
2023/11/14 09:46:04;;;;;;;2.10;2.00;;;;;;;;;;4959995;28;20047;-74
2023/11/14 09:48:31;;;;;;;1.80;1.70;;;;;;;;;;4971593;28;20043;-74
2023/11/14 09:50:57;;;;;;;2.20;2.10;;;;;;;;;;4972260;28;20034;-73
2023/11/14 09:53:23;;;;;;;1.95;1.85;;;;;;;;;;4962097;28;20059;-72
2023/11/14 09:55:49;;;;;;;2.63;2.13;;;;;;;;;;4973163;28;20137;-74
2023/11/14 09:58:15;;;;;;;4.00;2.50;;;;;;;;;;4973735;28;20126;-72
2023/11/14 10:00:42;;;;;;;2.15;2.03;;;;;;;;;;4955744;28;20129;-73
2023/11/14 10:03:09;;;;;;;2.50;2.40;;;;;;;;;;4973560;28;20055;-73
2023/11/14 10:05:35;;;;;;;2.08;1.98;;;;;;;;;;4951940;28;20462;-73
2023/11/14 10:08:03;;;;;;;2.55;2.38;;;;;;;;;;4949841;28;20050;-74
2023/11/14 10:10:31;;;;;;;2.35;2.25;;;;;;;;;;4949488;28;20047;-74
2023/11/14 10:12:57;;;;;;;2.00;1.90;;;;;;;;;;4970087;28;20062;-74
2023/11/14 10:15:30;;;;;;;2.10;2.00;;;;;;;;;;4954790;28;20054;-74
2023/11/14 10:17:57;;;;;;;2.67;2.47;;;;;;;;;;4972925;28;20050;-77
2023/11/14 10:20:24;;;;;;;2.80;2.60;;;;;;;;;;4971221;28;20047;-73
2023/11/14 10:22:51;;;;;;;2.50;2.40;;;;;;;;;;4952614;28;20053;-74
2023/11/14 10:25:24;;;;;;;3.65;2.08;;;;;;;;;;4960527;28;20417;-73
2023/11/14 10:27:59;;;;;;;2.03;1.90;;;;;;;;;;4956547;28;20051;-72
2023/11/14 10:30:26;;;;;;;2.30;2.17;;;;;;;;;;4938408;28;20042;-73
2023/11/14 10:32:55;;;;;;;1.77;1.48;;;;;;;;;;4953569;28;20121;-74
2023/11/14 10:35:21;;;;;;;1.48;1.38;;;;;;;;;;4954919;28;20054;-73
2023/11/14 10:37:47;;;;;;;2.55;2.45;;;;;;;;;;4969060;28;20517;-73
2023/11/14 10:40:15;;;;;;;2.33;2.13;;;;;;;;;;4951927;28;20043;-73
2023/11/14 10:42:49;;;;;;;2.47;2.28;;;;;;;;;;4960081;28;20126;-74
2023/11/14 10:45:16;;;;;;;2.40;2.20;;;;;;;;;;4964629;28;20197;-73
2023/11/14 10:47:42;;;;;;;2.30;2.20;;;;;;;;;;4954915;28;20041;-73
2023/11/14 10:50:25;;;;;;;1.85;1.75;;;;;;;;;;4966266;28;20042;-73
2023/11/14 10:52:52;;;;;;;2.63;1.77;;;;;;;;;;4962486;28;20054;-73
2023/11/14 10:55:18;;;;;;;1.70;1.70;;;;;;;;;;4958127;28;20059;-72
2023/11/14 10:57:44;;;;;;;1.75;1.65;;;;;;;;;;4938722;28;20030;-74
2023/11/14 11:00:11;;;;;;;2.33;2.22;;;;;;;;;;4944186;29;20402;-74
2023/11/14 11:02:39;;;;;;;2.30;2.10;;;;;;;;;;4954800;28;20042;-73
2023/11/14 11:05:05;;;;;;;1.30;1.30;;;;;;;;;;4952776;28;20050;-73
2023/11/14 11:07:31;;;;;;;2.35;1.80;;;;;;;;;;4958211;28;20473;-74
2023/11/14 11:09:58;;;;;;;1.73;1.73;;;;;;;;;;4958586;28;20664;-73
2023/11/14 11:12:25;;;;;;;1.55;1.45;;;;;;;;;;4968123;28;20382;-74
2023/11/14 11:14:51;;;;;;;5.72;1.92;;;;;;;;;;4972461;28;20144;-73
2023/11/14 11:17:35;;;;;;;3.20;2.05;;;;;;;;;;4972764;28;20041;-74
2023/11/14 11:20:02;;;;;;;2.20;2.10;;;;;;;;;;4972622;28;20049;-72
2023/11/14 11:22:30;;;;;;;1.63;1.52;;;;;;;;;;4972590;28;20078;-74
2023/11/14 11:25:14;;;;;;;2.15;2.05;;;;;;;;;;4955210;28;20046;-74
2023/11/14 11:27:40;;;;;;;2.20;2.10;;;;;;;;;;4972359;28;20113;-73
2023/11/14 11:30:10;;;;;;;1.80;1.70;;;;;;;;;;4972600;28;20066;-73
2023/11/14 11:32:40;;;;;;;1.67;1.67;;;;;;;;;;4972153;28;21001;-73
2023/11/14 11:35:16;;;;;;;1.50;1.50;;;;;;;;;;4973054;28;20058;-73
2023/11/14 11:37:43;;;;;;;1.83;1.73;;;;;;;;;;4972476;28;20030;-73
2023/11/14 11:40:12;;;;;;;4.47;1.75;;;;;;;;;;4972036;28;20050;-73
2023/11/14 11:42:43;;;;;;;1.40;1.30;;;;;;;;;;4955331;28;20039;-74
2023/11/14 11:45:30;;;;;;;1.65;1.55;;;;;;;;;;4984741;28;20090;-73
2023/11/14 11:47:59;;;;;;;1.40;1.40;;;;;;;;;;4972647;28;20053;-73
2023/11/14 11:50:26;;;;;;;1.60;1.60;;;;;;;;;;4971647;28;20047;-73
2023/11/14 11:53:19;;;;;;;1.95;1.85;;;;;;;;;;4971167;28;20051;-72
2023/11/14 11:55:45;;;;;;;2.28;2.17;;;;;;;;;;4947298;28;20049;-73
2023/11/14 11:58:11;;;;;;;2.28;2.17;;;;;;;;;;4972975;28;20042;-73
2023/11/14 12:00:37;;;;;;;2.00;1.90;;;;;;;;;;4968687;28;20133;-73
2023/11/14 12:03:04;;;;;;;2.30;2.10;;;;;;;;;;4967616;28;20573;-72
2023/11/14 12:05:31;;;;;;;2.08;1.98;;;;;;;;;;4954300;28;20134;-72
2023/11/14 12:08:04;;;;;;;1.70;1.70;;;;;;;;;;4931869;28;20149;-72
2023/11/14 12:10:30;;;;;;;2.40;1.75;;;;;;;;;;4962204;28;20051;-73
2023/11/14 12:12:56;;;;;;;2.10;2.00;;;;;;;;;;4956154;28;20530;-72
2023/11/14 12:15:23;;;;;;;2.22;2.10;;;;;;;;;;4951605;28;20065;-72
2023/11/14 12:17:50;;;;;;;2.60;2.40;;;;;;;;;;4969587;28;20038;-73
2023/11/14 12:20:16;;;;;;;2.00;1.90;;;;;;;;;;4957790;28;20051;-73
2023/11/14 12:22:43;;;;;;;2.20;1.63;;;;;;;;;;4965809;28;20347;-73
2023/11/14 12:25:09;;;;;;;1.98;1.88;;;;;;;;;;4953425;28;20117;-73
2023/11/14 12:27:35;;;;;;;2.15;2.00;;;;;;;;;;4952940;28;20134;-72
2023/11/14 12:30:09;;;;;;;1.90;1.80;;;;;;;;;;4970918;28;20074;-73
2023/11/14 12:32:38;;;;;;;1.83;1.73;;;;;;;;;;4958472;28;20043;-72
2023/11/14 12:35:05;;;;;;;2.08;1.98;;;;;;;;;;4953500;28;20117;-72
2023/11/14 12:37:31;;;;;;;2.05;1.85;;;;;;;;;;4970398;28;20034;-73
2023/11/14 12:40:01;;;;;;;1.23;1.20;;;;;;;;;;4970693;28;20064;-74
2023/11/14 12:42:28;;;;;;;1.30;1.30;;;;;;;;;;4970357;28;20106;-73
2023/11/14 12:44:54;;;;;;;1.40;1.30;;;;;;;;;;4953367;28;20046;-73
2023/11/14 12:47:22;;;;;;;3.50;1.50;;;;;;;;;;4939954;28;20039;-72
2023/11/14 12:49:48;;;;;;;1.45;1.45;;;;;;;;;;4970247;28;20051;-73
2023/11/14 12:52:14;;;;;;;1.58;1.48;;;;;;;;;;4970489;28;20043;-73
2023/11/14 12:54:41;;;;;;;2.13;1.75;;;;;;;;;;4952954;28;20066;-73
2023/11/14 12:57:07;;;;;;;2.13;2.03;;;;;;;;;;4970485;28;20537;-71
2023/11/14 12:59:33;;;;;;;1.80;1.35;;;;;;;;;;4962257;28;20050;-73
2023/11/14 13:01:59;;;;;;;1.83;1.73;;;;;;;;;;4953496;28;20031;-73
2023/11/14 13:04:25;;;;;;;1.65;1.60;;;;;;;;;;4952226;28;20043;-73
2023/11/14 13:06:52;;;;;;;2.00;1.90;;;;;;;;;;4962734;28;20054;-72
2023/11/14 13:09:19;;;;;;;1.67;1.60;;;;;;;;;;4958123;28;20043;-70
2023/11/14 13:11:45;;;;;;;2.47;2.25;;;;;;;;;;4952785;28;20536;-73
2023/11/14 13:14:12;;;;;;;2.47;1.80;;;;;;;;;;4950090;28;20360;-71
2023/11/14 13:16:39;;;;;;;1.60;1.50;;;;;;;;;;4949760;28;20387;-72
2023/11/14 13:19:05;;;;;;;3.15;1.83;;;;;;;;;;4952829;28;20039;-73
2023/11/14 13:21:31;;;;;;;1.88;1.77;;;;;;;;;;4965188;28;20145;-73
2023/11/14 13:23:57;;;;;;;3.92;2.15;;;;;;;;;;4950644;28;20043;-73
2023/11/14 13:26:24;;;;;;;2.63;2.42;;;;;;;;;;4961402;28;20043;-72
2023/11/14 13:28:50;;;;;;;2.05;1.95;;;;;;;;;;4955921;28;20043;-73
2023/11/14 13:31:16;;;;;;;3.28;2.20;;;;;;;;;;4951518;28;20066;-72
2023/11/14 13:33:43;;;;;;;3.40;3.10;;;;;;;;;;4965898;28;20133;-73
2023/11/14 13:36:10;;;;;;;2.15;2.05;;;;;;;;;;4967385;28;20047;-73
2023/11/14 13:38:37;;;;;;;2.50;2.40;;;;;;;;;;4965167;28;20043;-71
2023/11/14 13:41:06;;;;;;;3.10;2.80;;;;;;;;;;4969444;28;20047;-74
2023/11/14 13:43:36;;;;;;;2.67;2.55;;;;;;;;;;4969859;28;20049;-73
2023/11/14 13:46:06;;;;;;;2.97;2.78;;;;;;;;;;4969986;28;20042;-74
2023/11/14 13:48:33;;;;;;;2.67;2.47;;;;;;;;;;4953075;28;20189;-71
2023/11/14 13:50:59;;;;;;;3.15;2.95;;;;;;;;;;4949261;28;20130;-71
2023/11/14 13:53:27;;;;;;;2.55;2.45;;;;;;;;;;4969337;28;20117;-71
2023/11/14 13:55:54;;;;;;;1.80;1.70;;;;;;;;;;4937818;28;20059;-73
2023/11/14 13:58:22;;;;;;;2.53;2.33;;;;;;;;;;4969347;28;20039;-72
2023/11/14 14:00:51;;;;;;;2.97;2.60;;;;;;;;;;4973288;28;20174;-72
2023/11/14 14:03:19;;;;;;;2.60;2.40;;;;;;;;;;4955851;28;20516;-72
2023/11/14 14:05:48;;;;;;;2.55;2.45;;;;;;;;;;4972768;28;20050;-70
2023/11/14 14:08:14;;;;;;;2.55;2.45;;;;;;;;;;4972611;28;20369;-71
2023/11/14 14:10:43;;;;;;;2.55;1.90;;;;;;;;;;4940601;28;20049;-73
2023/11/14 14:13:14;;;;;;;2.15;2.05;;;;;;;;;;4954103;28;20193;-72
2023/11/14 14:15:41;;;;;;;5.70;2.72;;;;;;;;;;4969256;28;20136;-72
2023/11/14 14:18:08;;;;;;;3.20;2.90;;;;;;;;;;4970036;28;20035;-72
2023/11/14 14:20:36;;;;;;;2.45;2.35;;;;;;;;;;4972505;28;20432;-73
2023/11/14 14:23:02;;;;;;;5.78;2.80;;;;;;;;;;4973046;28;20523;-72
2023/11/14 14:25:28;;;;;;;1.85;1.75;;;;;;;;;;4971328;28;20049;-73
2023/11/14 14:27:54;;;;;;;3.08;2.88;;;;;;;;;;4964149;28;20039;-71
2023/11/14 14:30:22;;;;;;;2.72;2.53;;;;;;;;;;4964351;28;20042;-72
2023/11/14 14:32:48;;;;;;;3.25;2.95;;;;;;;;;;4954920;28;20066;-71
2023/11/14 14:35:15;;;;;;;2.65;2.55;;;;;;;;;;4939518;28;20047;-74
2023/11/14 14:37:41;;;;;;;2.38;2.28;;;;;;;;;;4969941;28;20516;-72
2023/11/14 14:40:09;;;;;;;3.35;2.83;;;;;;;;;;4980704;28;20073;-72
2023/11/14 14:42:39;;;;;;;3.78;2.72;;;;;;;;;;4971138;28;20034;-72